SBRB/RBR METAR and TAF weather

Enter ICAO airport designator
Station Type Date Time Source
SBRB METAR 2022/06/28 08:00 UTC NOAA

SBRB 280800Z 00000KT CAVOK 19/19 Q1011


Station Type Date Time Source
SBRB Decoded METAR 2022/06/28 08:00 UTC NOAA

Rio Branco, Brazil (SBRB) 10-00S 067-48W 143M
Jun 28, 2022 - 04:00 AM EDT / 2022.06.28 0800 UTC
Wind: Calm:0
Visibility: greater than 7 mile(s):0
Temperature: 66 F (19 C)
Dew Point: 66 F (19 C)
Relative Humidity: 100%
Pressure (altimeter): 29.85 in. Hg (1011 hPa)
ob: SBRB 280800Z 00000KT CAVOK 19/19 Q1011
cycle: 8

Station Type Date Time Source
SBRB TAF 2022/06/28 12:42 UTC NOAA

TAF SBRB 280840Z 2812/2824 35005KT CAVOK TN22/2812Z TX31/2818Z
BECMG 2814/2816 9999 SCT030
BECMG 2820/2822 16005KT CAVOK
RMK PGB

Example: see airport list